• Join FlightAware (Why Join?)
  • Login
  • US Flag 
04:24PM EDT


 

Airport Tracker/Info


-or-


 

Live Flight TrackerFlight Track Log ✈ SKW5550 ✈ 08-Oct-2013 ✈ KDEN - KSMF

Flight Track Log - Related Links

Times and Time Zones

All times are in EDT time to prevent confusion due to time zone crossing. See the SKW5550 flight status page for this flight to view local times or setup timezone preferences in your user account.

Time Position Orientation Groundspeed Altitude Reporting Facility
EDT Latitude Longitude Course Direction KTS MPH feet Rate Location/Type
05:12PM 39.8000 -104.7167 270° West 232 267 8,000  Level Denver TRACON
05:13PM 39.8500 -104.8000 308° West 284 327 9,400 1,500 Climbing Denver TRACON
05:14PM 39.9000 -104.8833 308° West 314 361 11,000 1,800 Climbing Denver TRACON
05:15PM 39.9333 -104.9833 294° West 305 351 13,100 1,740 Climbing Denver TRACON
05:16PM 39.9333 -105.1000 270° West 325 374 14,500 1,500 Climbing Denver TRACON
05:18PM 39.8624 -105.4728 270° West  Level Estimated
05:18PM 39.9469 -105.2647 276° West 320 368 16,900  Level Denver Center
05:19PM 39.9547 -105.3842 275° West 329 379 18,500 1,500 Climbing Denver Center
05:20PM 39.9631 -105.5025 275° West 329 379 20,000 1,500 Climbing Denver Center
05:21PM 39.9722 -105.6294 275° West 323 372 21,600 1,260 Climbing Denver Center
05:22PM 39.9744 -105.7419 272° West 311 358 22,700 900 Climbing Denver Center
05:23PM 39.9700 -105.8664 267° West 319 367 23,500 720 Climbing Denver Center
05:24PM 39.9783 -105.9906 275° West 343 395 24,300 780 Climbing Denver Center
05:25PM 39.9842 -106.1175 273° West 351 404 25,200 720 Climbing Denver Center
05:26PM 39.9914 -106.2475 274° West 359 413 25,900 720 Climbing Denver Center
05:27PM 39.9983 -106.3792 274° West 365 420 26,800 780 Climbing Denver Center
05:28PM 40.0139 -106.5228 278° West 366 421 27,600 720 Climbing Denver Center
05:29PM 40.0372 -106.6703 282° West 369 425 28,400 660 Climbing Denver Center
05:30PM 40.0581 -106.7981 282° West 377 434 29,000 720 Climbing Denver Center
05:31PM 40.0803 -106.9500 281° West 382 440 29,900 660 Climbing Denver Center
05:32PM 40.1006 -107.0814 281° West 385 443 30,400 480 Climbing Denver Center
05:33PM 40.1253 -107.2353 282° West 388 447 31,000 480 Climbing Denver Center
05:34PM 40.1444 -107.3700 281° West 394 453 31,500 480 Climbing Denver Center
05:35PM 40.1672 -107.5278 281° West 396 456 32,000 240 Climbing Denver Center
05:37PM 40.1878 -107.6647 281° West 400 460 32,000  Level Denver Center
05:38PM 40.2111 -107.8297 281° West 414 476 32,000  Level Denver Center
05:39PM 40.2314 -107.9719 281° West 417 480 32,000  Level Denver Center
05:40PM 40.2556 -108.1367 281° West 414 476 32,000  Level Denver Center
05:41PM 40.2756 -108.2775 281° West 416 479 32,000  Level Denver Center
05:42PM 40.2972 -108.4431 280° West 416 479 32,000  Level Denver Center
05:42PM 40.3086 -108.5197 281° West 414 476 32,000  Level Salt Lake Center
05:43PM 40.3264 -108.6608 279° West 412 474 32,000  Level Salt Lake Center
05:44PM 40.3386 -108.7464 281° West 412 474 32,000  Level Denver Center
05:45PM 40.3578 -108.8872 280° West 412 474 32,000  Level Denver Center
05:45PM 40.3661 -108.9586 279° West 413 475 32,000  Level Salt Lake Center
05:46PM 40.3889 -109.1222 280° West 411 473 32,000  Level Salt Lake Center
05:47PM 40.4072 -109.2647 280° West 413 475 32,000  Level Salt Lake Center
05:48PM 40.4289 -109.4272 280° West 408 470 32,000  Level Salt Lake Center
05:49PM 40.4467 -109.5669 280° West 408 470 32,000  Level Salt Lake Center
05:50PM 40.4672 -109.7297 279° West 405 466 32,000  Level Salt Lake Center
05:51PM 40.4847 -109.8667 280° West 400 460 32,000  Level Salt Lake Center
05:53PM 40.5036 -110.0247 279° West 395 455 32,000  Level Salt Lake Center
05:54PM 40.5172 -110.1619 277° West 396 456 32,000  Level Salt Lake Center
05:55PM 40.5314 -110.3206 277° West 393 452 32,000  Level Salt Lake Center
05:56PM 40.5442 -110.4561 277° West 392 451 32,000  Level Salt Lake Center
05:57PM 40.5583 -110.5958 278° West 395 455 32,000  Level Salt Lake Center
05:58PM 40.5711 -110.7383 277° West 394 453 32,000  Level Salt Lake Center
05:59PM 40.5842 -110.8811 277° West 394 453 32,000  Level Salt Lake Center
06:00PM 40.6008 -111.0528 277° West 394 453 32,000  Level Salt Lake Center
06:01PM 40.6122 -111.1947 276° West 392 451 32,000  Level Salt Lake Center
06:02PM 40.6247 -111.3358 277° West 389 448 32,000  Level Salt Lake Center
06:03PM 40.6367 -111.4769 276° West 388 447 32,000  Level Salt Lake Center
06:04PM 40.6489 -111.6172 277° West 386 444 32,000  Level Salt Lake Center
06:05PM 40.6606 -111.7586 276° West 387 445 32,000  Level Salt Lake Center
06:06PM 40.6717 -111.8992 276° West 383 441 32,000  Level Salt Lake Center
06:07PM 40.6831 -112.0400 276° West 383 441 32,000  Level Salt Lake Center
06:08PM 40.6961 -112.2058 276° West 378 435 32,000  Level Salt Lake Center
06:09PM 40.7067 -112.3433 276° West 374 430 32,000  Level Salt Lake Center
06:10PM 40.7178 -112.4794 276° West 373 429 32,000  Level Salt Lake Center
06:11PM 40.7222 -112.6147 273° West 369 425 32,000  Level Salt Lake Center
06:12PM 40.7242 -112.7494 271° West 370 426 32,000  Level Salt Lake Center
06:13PM 40.7244 -112.8864 270° West 376 433 32,000  Level Salt Lake Center
06:14PM 40.7253 -113.0242 271° West 376 433 32,000  Level Salt Lake Center
06:15PM 40.7264 -113.1911 271° West 381 438 32,000  Level Salt Lake Center
06:16PM 40.7275 -113.3308 271° West 383 441 32,000  Level Salt Lake Center
06:17PM 40.7264 -113.4703 269° West 382 440 32,000  Level Salt Lake Center
06:18PM 40.7272 -113.6114 270° West 385 443 32,000  Level Salt Lake Center
06:19PM 40.7264 -113.7542 270° West 388 447 32,000  Level Salt Lake Center
06:20PM 40.7219 -113.8942 268° West 386 444 32,000  Level Salt Lake Center
06:21PM 40.7178 -114.0356 268° West 386 444 32,000  Level Salt Lake Center
06:22PM 40.7111 -114.2061 267° West 388 447 32,000  Level Salt Lake Center
06:23PM 40.7058 -114.3478 267° West 389 448 32,000  Level Salt Lake Center
06:24PM 40.7019 -114.4908 268° West 390 449 32,000  Level Salt Lake Center
06:25PM 40.6978 -114.6331 268° West 390 449 32,000  Level Salt Lake Center
06:27PM 40.6908 -114.7753 266° West 390 449 32,000  Level Salt Lake Center
06:28PM 40.6833 -114.9228 266° West 392 451 32,000  Level Salt Lake Center
06:29PM 40.6753 -115.0833 266° West 393 452 32,000  Level Salt Lake Center
06:30PM 40.6653 -115.2217 265° West 397 457 32,000  Level Salt Lake Center
06:31PM 40.6592 -115.3608 267° West 396 456 32,000  Level Salt Lake Center
06:32PM 40.6497 -115.5222 266° West 397 457 32,000  Level Salt Lake Center
06:33PM 40.6442 -115.6611 267° West 398 458 32,000  Level Salt Lake Center
06:34PM 40.6367 -115.8242 267° West 399 459 32,000  Level Salt Lake Center
06:35PM 40.6283 -115.9650 266° West 401 461 32,000  Level Salt Lake Center
06:36PM 40.6189 -116.1283 266° West 402 463 32,000  Level Salt Lake Center
06:37PM 40.6097 -116.2708 265° West 407 468 32,000  Level Salt Lake Center
06:38PM 40.6011 -116.4122 265° West 407 468 32,000  Level Salt Lake Center
06:39PM 40.5906 -116.5778 265° West 407 468 32,000  Level Salt Lake Center
06:40PM 40.5822 -116.7194 266° West 409 471 32,000  Level Salt Lake Center
06:41PM 40.5714 -116.8839 265° West 410 472 32,000  Level Salt Lake Center
06:42PM 40.5278 -117.0364 249° West 409 471 32,000  Level Salt Lake Center
06:43PM 40.4814 -117.1639 244° Southwest 407 468 32,000  Level Salt Lake Center
06:44PM 40.4344 -117.2906 244° Southwest 406 467 32,000  Level Salt Lake Center
06:45PM 40.3806 -117.4381 244° Southwest 403 464 32,000  Level Salt Lake Center
06:46PM 40.3336 -117.5661 244° Southwest 406 467 32,000  Level Salt Lake Center
06:47PM 40.2778 -117.7139 244° Southwest 406 467 32,000  Level Salt Lake Center
06:48PM 40.2303 -117.8403 244° Southwest 405 466 32,000  Level Salt Lake Center
06:49PM 40.2058 -117.9097 245° Southwest 405 466 32,000  Level Oakland Center
06:50PM 40.1564 -118.0414 244° Southwest 405 466 32,000  Level Oakland Center
06:51PM 40.1067 -118.1747 244° Southwest 408 470 32,000  Level Oakland Center
06:52PM 40.0567 -118.3047 243° Southwest 405 466 32,000  Level Oakland Center
06:53PM 39.9967 -118.4642 244° Southwest 407 468 32,000  Level Oakland Center
06:54PM 39.9467 -118.5956 244° Southwest 407 468 32,000  Level Oakland Center
06:55PM 39.8967 -118.7247 243° Southwest 403 464 32,000  Level Oakland Center
06:56PM 39.8472 -118.8528 243° Southwest 399 459 32,000  Level Oakland Center
06:57PM 39.7975 -118.9794 243° Southwest 397 457 32,000  Level Oakland Center
06:58PM 39.7486 -119.1050 243° Southwest 394 453 32,000 -300 Level Oakland Center
06:59PM 39.6989 -119.2300 243° Southwest 392 451 31,400 -1,500 Descending Oakland Center
07:00PM 39.6386 -119.3831 243° Southwest 397 457 29,000 -1,860 Descending Oakland Center
07:01PM 39.5906 -119.5069 243° Southwest 391 450 27,600 -1,440 Descending Oakland Center
07:02PM 39.5419 -119.6289 243° Southwest 385 443 26,100 -1,500 Descending Oakland Center
07:03PM 39.4833 -119.7408 236° Southwest 377 434 24,600 -1,080 Descending Oakland Center
07:04PM 39.4217 -119.8489 234° Southwest 375 432 24,000 -900 Descending Oakland Center
07:05PM 39.3594 -119.9572 233° Southwest 376 433 22,800 -1,260 Descending Oakland Center
07:06PM 39.2983 -120.0625 233° Southwest 371 427 21,500 -1,320 Descending Oakland Center
07:07PM 39.2372 -120.1711 234° Southwest 349 402 20,100 -780 Descending Oakland Center
07:08PM 39.1800 -120.2731 234° Southwest 350 403 20,000 -600 Descending Oakland Center
07:09PM 39.1489 -120.3936 252° West 355 409 18,900 -1,320 Descending Oakland Center
07:10PM 39.1197 -120.5094 252° West 346 398 17,400 -1,560 Descending Oakland Center
07:11PM 39.0853 -120.6444 252° West 334 384 15,800 -1,440 Descending Oakland Center
07:12PM 39.0569 -120.7533 252° West 327 376 14,500 -1,320 Descending Oakland Center
07:13PM 39.0297 -120.8600 252° West 319 367 13,200 -1,320 Descending Oakland Center
07:14PM 39.0008 -120.9683 251° West 320 368 11,900 -1,320 Descending Oakland Center
07:15PM 38.9761 -121.0697 253° West 306 352 10,600 -960 Descending Oakland Center
07:16PM 38.9503 -121.1625 250° West 282 325 10,000 -300 Descending Oakland Center
07:17PM 38.9261 -121.2569 252° West 280 322 10,000 -600 Level Oakland Center
07:18PM 38.9008 -121.3508 251° West 281 323 8,800 -1,200 Descending Oakland Center
07:19PM 38.8886 -121.4522 261° West 248 285 7,600 -1,080 Descending Oakland Center
07:20PM 38.8889 -121.5356 270° West 237 273 6,600 -1,320 Descending Oakland Center
07:22PM 38.8667 -121.6500 256° West 256 295 4,700 -1,500 Descending Northern Cal TRACON
07:22PM 38.8286 -121.6831 214° Southwest 250 288 3,600 -1,020 Descending Oakland Center
07:23PM 38.7617 -121.6794 178° South 243 280 2,900 -360 Descending Oakland Center
07:24PM 38.7056 -121.6744 176° South 217 250 2,900  Level Oakland Center
07:25PM 38.6500 -121.6681 175° South 204 235 2,900 -60 Level Oakland Center
07:27PM 38.5917 -121.6494 166° South 190 219 2,800 -780 Descending Oakland Center
07:28PM 38.6000 -121.6000 78° East 158 182 1,400 -780 Descending Northern Cal TRACON
07:29PM 38.6333 -121.5833 21° North 144 166 1,300 -600 Descending Northern Cal TRACON
07:30PM 38.6833 -121.5833 360° North 138 159 200 -1,140 Descending Northern Cal TRACON